sensor_id;sensor_type;location;lat;lon;timestamp;P1;durP1;ratioP1;P2;durP2;ratioP2
73550;SDS011;61816;53.582;10.096;2023-01-10T00:01:55;76.55;;;25.20;;
73550;SDS011;61816;53.582;10.096;2023-01-10T00:04:21;60.53;;;20.75;;
73550;SDS011;61816;53.582;10.096;2023-01-10T00:06:47;57.60;;;21.33;;
73550;SDS011;61816;53.582;10.096;2023-01-10T00:09:12;65.05;;;21.17;;
73550;SDS011;61816;53.582;10.096;2023-01-10T00:11:38;52.78;;;21.40;;
73550;SDS011;61816;53.582;10.096;2023-01-10T00:14:22;53.60;;;20.52;;
73550;SDS011;61816;53.582;10.096;2023-01-10T00:16:47;63.90;;;19.15;;
73550;SDS011;61816;53.582;10.096;2023-01-10T00:19:12;50.95;;;18.02;;
73550;SDS011;61816;53.582;10.096;2023-01-10T00:21:38;54.97;;;18.63;;
73550;SDS011;61816;53.582;10.096;2023-01-10T00:24:04;46.17;;;17.48;;
73550;SDS011;61816;53.582;10.096;2023-01-10T00:26:46;51.53;;;17.15;;
73550;SDS011;61816;53.582;10.096;2023-01-10T00:31:44;55.75;;;16.45;;
73550;SDS011;61816;53.582;10.096;2023-01-10T00:34:10;47.50;;;15.77;;
73550;SDS011;61816;53.582;10.096;2023-01-10T00:36:35;47.28;;;15.75;;
73550;SDS011;61816;53.582;10.096;2023-01-10T00:39:00;65.97;;;17.75;;
73550;SDS011;61816;53.582;10.096;2023-01-10T00:41:26;35.72;;;13.55;;
73550;SDS011;61816;53.582;10.096;2023-01-10T00:44:10;59.25;;;15.50;;
73550;SDS011;61816;53.582;10.096;2023-01-10T00:46:35;50.55;;;14.98;;
73550;SDS011;61816;53.582;10.096;2023-01-10T00:49:01;53.50;;;13.32;;
73550;SDS011;61816;53.582;10.096;2023-01-10T00:51:29;61.30;;;15.18;;
73550;SDS011;61816;53.582;10.096;2023-01-10T00:53:54;73.05;;;16.02;;
73550;SDS011;61816;53.582;10.096;2023-01-10T00:56:20;49.97;;;13.10;;
73550;SDS011;61816;53.582;10.096;2023-01-10T00:58:45;50.15;;;13.18;;
73550;SDS011;61816;53.582;10.096;2023-01-10T01:01:10;53.13;;;14.18;;
73550;SDS011;61816;53.582;10.096;2023-01-10T01:03:36;42.92;;;12.75;;
73550;SDS011;61816;53.582;10.096;2023-01-10T01:06:04;60.47;;;13.23;;
73550;SDS011;61816;53.582;10.096;2023-01-10T01:08:30;47.42;;;13.48;;
73550;SDS011;61816;53.582;10.096;2023-01-10T01:10:56;45.05;;;12.68;;
73550;SDS011;61816;53.582;10.096;2023-01-10T01:13:21;53.05;;;13.65;;
73550;SDS011;61816;53.582;10.096;2023-01-10T01:15:48;55.05;;;13.95;;
73550;SDS011;61816;53.582;10.096;2023-01-10T01:18:15;44.58;;;13.02;;
73550;SDS011;61816;53.582;10.096;2023-01-10T01:20:43;66.75;;;13.70;;
73550;SDS011;61816;53.582;10.096;2023-01-10T01:23:12;40.35;;;11.63;;
73550;SDS011;61816;53.582;10.096;2023-01-10T01:25:38;44.45;;;12.85;;
73550;SDS011;61816;53.582;10.096;2023-01-10T01:28:04;47.83;;;13.02;;
73550;SDS011;61816;53.582;10.096;2023-01-10T01:30:29;42.45;;;12.23;;
73550;SDS011;61816;53.582;10.096;2023-01-10T01:32:55;51.58;;;12.18;;
73550;SDS011;61816;53.582;10.096;2023-01-10T01:35:20;50.80;;;13.02;;
73550;SDS011;61816;53.582;10.096;2023-01-10T01:37:45;41.63;;;12.02;;
73550;SDS011;61816;53.582;10.096;2023-01-10T01:40:12;46.42;;;11.63;;
73550;SDS011;61816;53.582;10.096;2023-01-10T01:42:41;56.42;;;13.63;;
73550;SDS011;61816;53.582;10.096;2023-01-10T01:47:37;51.50;;;12.10;;
73550;SDS011;61816;53.582;10.096;2023-01-10T01:50:15;41.42;;;11.38;;
73550;SDS011;61816;53.582;10.096;2023-01-10T01:52:46;57.95;;;14.30;;
73550;SDS011;61816;53.582;10.096;2023-01-10T01:55:15;39.90;;;12.38;;
73550;SDS011;61816;53.582;10.096;2023-01-10T01:57:41;63.35;;;13.23;;
73550;SDS011;61816;53.582;10.096;2023-01-10T02:00:09;48.42;;;15.00;;
73550;SDS011;61816;53.582;10.096;2023-01-10T02:02:36;42.33;;;12.63;;
73550;SDS011;61816;53.582;10.096;2023-01-10T02:05:07;59.55;;;13.68;;
73550;SDS011;61816;53.582;10.096;2023-01-10T02:07:38;39.42;;;12.43;;
73550;SDS011;61816;53.582;10.096;2023-01-10T02:12:41;40.42;;;12.95;;
73550;SDS011;61816;53.582;10.096;2023-01-10T02:15:10;42.17;;;12.27;;
73550;SDS011;61816;53.582;10.096;2023-01-10T02:17:36;48.47;;;12.98;;
73550;SDS011;61816;53.582;10.096;2023-01-10T02:20:06;40.88;;;13.13;;
73550;SDS011;61816;53.582;10.096;2023-01-10T02:33:37;50.95;;;11.93;;
73550;SDS011;61816;53.582;10.096;2023-01-10T02:37:12;45.38;;;13.18;;
73550;SDS011;61816;53.582;10.096;2023-01-10T02:39:28;45.85;;;12.10;;
73550;SDS011;61816;53.582;10.096;2023-01-10T02:42:06;46.28;;;13.57;;
73550;SDS011;61816;53.582;10.096;2023-01-10T02:44:41;40.80;;;12.95;;
73550;SDS011;61816;53.582;10.096;2023-01-10T02:47:11;46.03;;;13.23;;
73550;SDS011;61816;53.582;10.096;2023-01-10T02:49:45;36.97;;;12.45;;
73550;SDS011;61816;53.582;10.096;2023-01-10T02:52:13;44.85;;;13.30;;
73550;SDS011;61816;53.582;10.096;2023-01-10T02:54:53;29.80;;;11.02;;
73550;SDS011;61816;53.582;10.096;2023-01-10T03:02:51;42.83;;;11.77;;
73550;SDS011;61816;53.582;10.096;2023-01-10T03:05:25;46.85;;;11.90;;
73550;SDS011;61816;53.582;10.096;2023-01-10T03:08:07;38.58;;;11.38;;
73550;SDS011;61816;53.582;10.096;2023-01-10T03:10:46;49.63;;;12.73;;
73550;SDS011;61816;53.582;10.096;2023-01-10T03:13:24;47.05;;;12.43;;
73550;SDS011;61816;53.582;10.096;2023-01-10T03:15:53;44.30;;;12.90;;
73550;SDS011;61816;53.582;10.096;2023-01-10T03:18:27;56.20;;;11.23;;
73550;SDS011;61816;53.582;10.096;2023-01-10T03:21:12;47.03;;;13.60;;
73550;SDS011;61816;53.582;10.096;2023-01-10T03:23:39;40.15;;;12.10;;
73550;SDS011;61816;53.582;10.096;2023-01-10T03:26:04;40.03;;;11.63;;
73550;SDS011;61816;53.582;10.096;2023-01-10T03:28:36;53.13;;;12.68;;
73550;SDS011;61816;53.582;10.096;2023-01-10T03:31:51;59.90;;;15.05;;
73550;SDS011;61816;53.582;10.096;2023-01-10T03:34:03;35.58;;;11.30;;
73550;SDS011;61816;53.582;10.096;2023-01-10T03:36:40;40.90;;;11.57;;
73550;SDS011;61816;53.582;10.096;2023-01-10T03:39:19;38.45;;;11.48;;
73550;SDS011;61816;53.582;10.096;2023-01-10T03:44:41;37.75;;;11.75;;
73550;SDS011;61816;53.582;10.096;2023-01-10T03:52:38;43.40;;;10.90;;
73550;SDS011;61816;53.582;10.096;2023-01-10T03:55:06;41.45;;;12.77;;
73550;SDS011;61816;53.582;10.096;2023-01-10T03:57:34;41.70;;;12.52;;
73550;SDS011;61816;53.582;10.096;2023-01-10T03:59:59;42.03;;;10.82;;
73550;SDS011;61816;53.582;10.096;2023-01-10T04:02:28;40.58;;;11.35;;
73550;SDS011;61816;53.582;10.096;2023-01-10T04:04:55;46.40;;;12.15;;
73550;SDS011;61816;53.582;10.096;2023-01-10T04:07:21;38.25;;;11.45;;
73550;SDS011;61816;53.582;10.096;2023-01-10T04:09:47;36.28;;;10.40;;
73550;SDS011;61816;53.582;10.096;2023-01-10T04:12:13;48.10;;;11.50;;
73550;SDS011;61816;53.582;10.096;2023-01-10T04:14:38;31.70;;;10.60;;
73550;SDS011;61816;53.582;10.096;2023-01-10T04:17:04;42.53;;;9.75;;
73550;SDS011;61816;53.582;10.096;2023-01-10T04:19:30;38.50;;;9.10;;
73550;SDS011;61816;53.582;10.096;2023-01-10T04:21:55;27.25;;;9.18;;
73550;SDS011;61816;53.582;10.096;2023-01-10T04:24:20;40.33;;;10.15;;
73550;SDS011;61816;53.582;10.096;2023-01-10T04:26:46;31.83;;;10.13;;
73550;SDS011;61816;53.582;10.096;2023-01-10T04:29:11;28.92;;;8.98;;
73550;SDS011;61816;53.582;10.096;2023-01-10T04:31:37;32.10;;;10.15;;
73550;SDS011;61816;53.582;10.096;2023-01-10T04:34:04;28.10;;;9.05;;
73550;SDS011;61816;53.582;10.096;2023-01-10T04:36:30;40.65;;;8.80;;
73550;SDS011;61816;53.582;10.096;2023-01-10T04:38:56;43.28;;;10.35;;
73550;SDS011;61816;53.582;10.096;2023-01-10T04:41:21;34.17;;;8.35;;
73550;SDS011;61816;53.582;10.096;2023-01-10T04:43:46;25.20;;;7.65;;
73550;SDS011;61816;53.582;10.096;2023-01-10T04:46:13;35.92;;;8.25;;
73550;SDS011;61816;53.582;10.096;2023-01-10T04:48:39;35.08;;;8.05;;
73550;SDS011;61816;53.582;10.096;2023-01-10T04:51:04;30.27;;;8.90;;
73550;SDS011;61816;53.582;10.096;2023-01-10T04:53:30;38.75;;;9.13;;
73550;SDS011;61816;53.582;10.096;2023-01-10T04:56:00;38.90;;;8.32;;
73550;SDS011;61816;53.582;10.096;2023-01-10T05:00:52;36.35;;;7.55;;
73550;SDS011;61816;53.582;10.096;2023-01-10T05:03:18;47.15;;;9.07;;
73550;SDS011;61816;53.582;10.096;2023-01-10T05:05:44;34.40;;;9.25;;
73550;SDS011;61816;53.582;10.096;2023-01-10T05:08:09;33.05;;;8.63;;
73550;SDS011;61816;53.582;10.096;2023-01-10T05:10:35;42.53;;;7.68;;
73550;SDS011;61816;53.582;10.096;2023-01-10T05:13:00;29.15;;;7.38;;
73550;SDS011;61816;53.582;10.096;2023-01-10T05:15:25;32.55;;;7.10;;
73550;SDS011;61816;53.582;10.096;2023-01-10T05:17:56;30.15;;;7.20;;
73550;SDS011;61816;53.582;10.096;2023-01-10T05:20:22;51.22;;;7.90;;
73550;SDS011;61816;53.582;10.096;2023-01-10T05:22:47;39.60;;;7.70;;
73550;SDS011;61816;53.582;10.096;2023-01-10T05:25:13;29.05;;;6.45;;
73550;SDS011;61816;53.582;10.096;2023-01-10T05:27:41;35.85;;;6.65;;
73550;SDS011;61816;53.582;10.096;2023-01-10T05:30:10;49.33;;;8.43;;
73550;SDS011;61816;53.582;10.096;2023-01-10T05:32:37;39.80;;;7.28;;
73550;SDS011;61816;53.582;10.096;2023-01-10T05:35:03;37.13;;;7.82;;
73550;SDS011;61816;53.582;10.096;2023-01-10T05:37:28;35.42;;;7.70;;
73550;SDS011;61816;53.582;10.096;2023-01-10T05:39:54;27.45;;;6.32;;
73550;SDS011;61816;53.582;10.096;2023-01-10T05:42:19;34.83;;;5.95;;
73550;SDS011;61816;53.582;10.096;2023-01-10T05:44:44;29.38;;;6.68;;
73550;SDS011;61816;53.582;10.096;2023-01-10T05:47:10;31.45;;;6.65;;
73550;SDS011;61816;53.582;10.096;2023-01-10T05:49:35;37.85;;;6.78;;
73550;SDS011;61816;53.582;10.096;2023-01-10T05:52:00;34.28;;;6.43;;
73550;SDS011;61816;53.582;10.096;2023-01-10T05:54:26;34.40;;;6.13;;
73550;SDS011;61816;53.582;10.096;2023-01-10T05:56:53;35.35;;;6.78;;
73550;SDS011;61816;53.582;10.096;2023-01-10T05:59:18;35.88;;;6.40;;
73550;SDS011;61816;53.582;10.096;2023-01-10T06:01:44;40.15;;;5.72;;
73550;SDS011;61816;53.582;10.096;2023-01-10T06:04:09;34.50;;;6.35;;
73550;SDS011;61816;53.582;10.096;2023-01-10T06:06:34;29.55;;;5.25;;
73550;SDS011;61816;53.582;10.096;2023-01-10T06:09:00;38.83;;;6.65;;
73550;SDS011;61816;53.582;10.096;2023-01-10T06:11:25;50.85;;;6.63;;
73550;SDS011;61816;53.582;10.096;2023-01-10T06:13:54;31.67;;;5.70;;
73550;SDS011;61816;53.582;10.096;2023-01-10T06:16:21;49.50;;;7.53;;
73550;SDS011;61816;53.582;10.096;2023-01-10T06:18:46;33.10;;;7.30;;
73550;SDS011;61816;53.582;10.096;2023-01-10T06:21:12;34.83;;;6.63;;
73550;SDS011;61816;53.582;10.096;2023-01-10T06:23:37;37.22;;;7.03;;
73550;SDS011;61816;53.582;10.096;2023-01-10T06:26:03;30.60;;;6.43;;
73550;SDS011;61816;53.582;10.096;2023-01-10T06:28:29;39.75;;;6.00;;
73550;SDS011;61816;53.582;10.096;2023-01-10T06:30:55;41.13;;;7.18;;
73550;SDS011;61816;53.582;10.096;2023-01-10T06:33:20;28.80;;;5.63;;
73550;SDS011;61816;53.582;10.096;2023-01-10T06:35:45;47.67;;;7.68;;
73550;SDS011;61816;53.582;10.096;2023-01-10T06:38:12;33.83;;;6.50;;
73550;SDS011;61816;53.582;10.096;2023-01-10T06:40:38;28.55;;;5.75;;
73550;SDS011;61816;53.582;10.096;2023-01-10T06:43:03;36.95;;;8.05;;
73550;SDS011;61816;53.582;10.096;2023-01-10T06:45:29;31.08;;;6.15;;
73550;SDS011;61816;53.582;10.096;2023-01-10T06:47:54;50.58;;;7.72;;
73550;SDS011;61816;53.582;10.096;2023-01-10T06:50:20;38.15;;;7.10;;
73550;SDS011;61816;53.582;10.096;2023-01-10T06:52:45;42.70;;;6.43;;
73550;SDS011;61816;53.582;10.096;2023-01-10T06:55:10;40.13;;;6.55;;
73550;SDS011;61816;53.582;10.096;2023-01-10T06:57:36;37.35;;;8.05;;
73550;SDS011;61816;53.582;10.096;2023-01-10T07:00:06;34.95;;;6.20;;
73550;SDS011;61816;53.582;10.096;2023-01-10T07:02:33;36.78;;;6.43;;
73550;SDS011;61816;53.582;10.096;2023-01-10T07:04:59;37.60;;;6.95;;
73550;SDS011;61816;53.582;10.096;2023-01-10T07:07:24;42.83;;;7.53;;
73550;SDS011;61816;53.582;10.096;2023-01-10T07:09:50;39.22;;;7.13;;
73550;SDS011;61816;53.582;10.096;2023-01-10T07:12:15;41.00;;;7.40;;
73550;SDS011;61816;53.582;10.096;2023-01-10T07:14:40;45.20;;;9.15;;
73550;SDS011;61816;53.582;10.096;2023-01-10T07:17:06;37.22;;;8.32;;
73550;SDS011;61816;53.582;10.096;2023-01-10T07:19:31;42.13;;;8.45;;
73550;SDS011;61816;53.582;10.096;2023-01-10T07:21:56;39.63;;;7.38;;
73550;SDS011;61816;53.582;10.096;2023-01-10T07:24:22;45.67;;;7.78;;
73550;SDS011;61816;53.582;10.096;2023-01-10T07:26:47;42.60;;;7.72;;
73550;SDS011;61816;53.582;10.096;2023-01-10T07:29:12;42.55;;;6.70;;
73550;SDS011;61816;53.582;10.096;2023-01-10T07:31:38;47.45;;;8.40;;
73550;SDS011;61816;53.582;10.096;2023-01-10T07:34:03;44.90;;;8.15;;
73550;SDS011;61816;53.582;10.096;2023-01-10T07:36:28;37.00;;;7.57;;
73550;SDS011;61816;53.582;10.096;2023-01-10T07:38:54;45.25;;;8.32;;
73550;SDS011;61816;53.582;10.096;2023-01-10T07:41:19;42.78;;;8.13;;
73550;SDS011;61816;53.582;10.096;2023-01-10T07:43:44;45.70;;;7.53;;
73550;SDS011;61816;53.582;10.096;2023-01-10T07:46:10;43.70;;;6.93;;
73550;SDS011;61816;53.582;10.096;2023-01-10T07:48:36;39.17;;;8.43;;
73550;SDS011;61816;53.582;10.096;2023-01-10T07:51:03;45.15;;;7.80;;
73550;SDS011;61816;53.582;10.096;2023-01-10T07:53:30;37.50;;;6.68;;
73550;SDS011;61816;53.582;10.096;2023-01-10T07:55:59;41.08;;;7.88;;
73550;SDS011;61816;53.582;10.096;2023-01-10T07:58:25;45.03;;;8.25;;
73550;SDS011;61816;53.582;10.096;2023-01-10T08:00:51;39.10;;;8.45;;
73550;SDS011;61816;53.582;10.096;2023-01-10T08:03:16;42.60;;;7.47;;
73550;SDS011;61816;53.582;10.096;2023-01-10T08:05:42;52.15;;;8.15;;
73550;SDS011;61816;53.582;10.096;2023-01-10T08:08:09;36.33;;;8.10;;
73550;SDS011;61816;53.582;10.096;2023-01-10T08:10:36;52.55;;;9.55;;
73550;SDS011;61816;53.582;10.096;2023-01-10T08:13:02;52.70;;;8.57;;
73550;SDS011;61816;53.582;10.096;2023-01-10T08:15:28;45.92;;;7.88;;
73550;SDS011;61816;53.582;10.096;2023-01-10T08:17:54;33.75;;;8.30;;
73550;SDS011;61816;53.582;10.096;2023-01-10T08:20:24;41.28;;;9.02;;
73550;SDS011;61816;53.582;10.096;2023-01-10T08:22:49;51.50;;;8.80;;
73550;SDS011;61816;53.582;10.096;2023-01-10T08:25:14;44.78;;;8.35;;
73550;SDS011;61816;53.582;10.096;2023-01-10T08:27:43;37.97;;;8.23;;
73550;SDS011;61816;53.582;10.096;2023-01-10T08:30:09;37.10;;;9.13;;
73550;SDS011;61816;53.582;10.096;2023-01-10T08:32:35;51.60;;;9.27;;
73550;SDS011;61816;53.582;10.096;2023-01-10T08:35:00;41.45;;;9.35;;
73550;SDS011;61816;53.582;10.096;2023-01-10T08:37:25;39.45;;;9.27;;
73550;SDS011;61816;53.582;10.096;2023-01-10T08:39:51;52.88;;;9.73;;
73550;SDS011;61816;53.582;10.096;2023-01-10T08:42:16;48.22;;;9.68;;
73550;SDS011;61816;53.582;10.096;2023-01-10T08:44:42;43.95;;;8.70;;
73550;SDS011;61816;53.582;10.096;2023-01-10T08:47:09;50.15;;;11.50;;
73550;SDS011;61816;53.582;10.096;2023-01-10T08:49:34;36.53;;;9.32;;
73550;SDS011;61816;53.582;10.096;2023-01-10T08:52:00;36.50;;;9.20;;
73550;SDS011;61816;53.582;10.096;2023-01-10T08:54:26;45.70;;;9.20;;
73550;SDS011;61816;53.582;10.096;2023-01-10T08:56:51;39.10;;;9.77;;
73550;SDS011;61816;53.582;10.096;2023-01-10T08:59:17;53.33;;;10.38;;
73550;SDS011;61816;53.582;10.096;2023-01-10T09:01:42;46.25;;;10.45;;
73550;SDS011;61816;53.582;10.096;2023-01-10T09:04:07;33.17;;;9.02;;
73550;SDS011;61816;53.582;10.096;2023-01-10T09:06:33;38.92;;;9.50;;
73550;SDS011;61816;53.582;10.096;2023-01-10T09:08:58;39.63;;;12.30;;
73550;SDS011;61816;53.582;10.096;2023-01-10T09:11:23;42.15;;;11.93;;
73550;SDS011;61816;53.582;10.096;2023-01-10T09:13:49;53.13;;;12.93;;
73550;SDS011;61816;53.582;10.096;2023-01-10T09:16:15;59.65;;;13.93;;
73550;SDS011;61816;53.582;10.096;2023-01-10T09:18:41;41.13;;;13.00;;
73550;SDS011;61816;53.582;10.096;2023-01-10T09:21:07;37.35;;;11.60;;
73550;SDS011;61816;53.582;10.096;2023-01-10T09:23:32;44.40;;;10.75;;
73550;SDS011;61816;53.582;10.096;2023-01-10T09:25:58;37.80;;;12.52;;
73550;SDS011;61816;53.582;10.096;2023-01-10T09:28:24;39.95;;;12.05;;
73550;SDS011;61816;53.582;10.096;2023-01-10T09:30:49;45.05;;;12.23;;
73550;SDS011;61816;53.582;10.096;2023-01-10T09:33:14;52.97;;;14.02;;
73550;SDS011;61816;53.582;10.096;2023-01-10T09:35:40;32.92;;;11.45;;
73550;SDS011;61816;53.582;10.096;2023-01-10T09:38:09;54.75;;;12.70;;
73550;SDS011;61816;53.582;10.096;2023-01-10T09:43:09;51.25;;;12.85;;
73550;SDS011;61816;53.582;10.096;2023-01-10T09:48:48;46.22;;;11.32;;
73550;SDS011;61816;53.582;10.096;2023-01-10T09:54:04;39.50;;;11.55;;
73550;SDS011;61816;53.582;10.096;2023-01-10T09:56:35;37.28;;;10.98;;
73550;SDS011;61816;53.582;10.096;2023-01-10T09:59:01;34.75;;;11.60;;
73550;SDS011;61816;53.582;10.096;2023-01-10T10:01:33;42.85;;;11.60;;
73550;SDS011;61816;53.582;10.096;2023-01-10T10:04:22;41.28;;;11.57;;
73550;SDS011;61816;53.582;10.096;2023-01-10T10:06:58;50.42;;;11.90;;
73550;SDS011;61816;53.582;10.096;2023-01-10T10:09:26;41.63;;;12.00;;
73550;SDS011;61816;53.582;10.096;2023-01-10T10:11:58;52.30;;;11.82;;
73550;SDS011;61816;53.582;10.096;2023-01-10T10:14:40;30.60;;;12.13;;
73550;SDS011;61816;53.582;10.096;2023-01-10T10:20:21;52.40;;;12.95;;
73550;SDS011;61816;53.582;10.096;2023-01-10T10:37:21;45.70;;;13.48;;
73550;SDS011;61816;53.582;10.096;2023-01-10T10:39:57;42.63;;;12.95;;
73550;SDS011;61816;53.582;10.096;2023-01-10T10:42:35;57.95;;;15.75;;
73550;SDS011;61816;53.582;10.096;2023-01-10T10:45:06;48.20;;;15.48;;
73550;SDS011;61816;53.582;10.096;2023-01-10T10:47:49;45.13;;;15.57;;
73550;SDS011;61816;53.582;10.096;2023-01-10T10:50:23;58.38;;;14.98;;
73550;SDS011;61816;53.582;10.096;2023-01-10T10:52:55;44.95;;;14.90;;
73550;SDS011;61816;53.582;10.096;2023-01-10T10:55:26;50.45;;;17.02;;
73550;SDS011;61816;53.582;10.096;2023-01-10T10:57:57;43.13;;;15.95;;
73550;SDS011;61816;53.582;10.096;2023-01-10T11:00:26;41.42;;;14.80;;
73550;SDS011;61816;53.582;10.096;2023-01-10T11:02:56;52.75;;;16.52;;
73550;SDS011;61816;53.582;10.096;2023-01-10T11:05:31;56.40;;;15.35;;
73550;SDS011;61816;53.582;10.096;2023-01-10T11:08:02;44.72;;;16.58;;
73550;SDS011;61816;53.582;10.096;2023-01-10T11:10:32;43.25;;;14.90;;
73550;SDS011;61816;53.582;10.096;2023-01-10T11:13:03;48.00;;;15.48;;
73550;SDS011;61816;53.582;10.096;2023-01-10T11:15:48;58.25;;;15.60;;
73550;SDS011;61816;53.582;10.096;2023-01-10T11:18:15;42.92;;;15.07;;
73550;SDS011;61816;53.582;10.096;2023-01-10T11:21:24;47.92;;;15.18;;
73550;SDS011;61816;53.582;10.096;2023-01-10T11:26:22;55.63;;;15.18;;
73550;SDS011;61816;53.582;10.096;2023-01-10T11:29:05;53.70;;;16.17;;
73550;SDS011;61816;53.582;10.096;2023-01-10T11:31:52;50.72;;;16.13;;
73550;SDS011;61816;53.582;10.096;2023-01-10T11:34:29;40.70;;;15.27;;
73550;SDS011;61816;53.582;10.096;2023-01-10T11:36:58;62.15;;;15.70;;
73550;SDS011;61816;53.582;10.096;2023-01-10T11:39:30;44.72;;;13.30;;
73550;SDS011;61816;53.582;10.096;2023-01-10T11:41:56;48.40;;;16.25;;
73550;SDS011;61816;53.582;10.096;2023-01-10T11:44:37;55.88;;;15.70;;
73550;SDS011;61816;53.582;10.096;2023-01-10T11:47:03;39.60;;;14.07;;
73550;SDS011;61816;53.582;10.096;2023-01-10T11:49:34;50.78;;;15.52;;
73550;SDS011;61816;53.582;10.096;2023-01-10T11:52:04;42.55;;;14.15;;
73550;SDS011;61816;53.582;10.096;2023-01-10T11:54:39;41.20;;;13.93;;
73550;SDS011;61816;53.582;10.096;2023-01-10T11:57:06;45.15;;;15.55;;
73550;SDS011;61816;53.582;10.096;2023-01-10T11:59:38;49.38;;;14.48;;
73550;SDS011;61816;53.582;10.096;2023-01-10T12:02:12;55.20;;;13.85;;
73550;SDS011;61816;53.582;10.096;2023-01-10T12:04:46;43.63;;;14.32;;
73550;SDS011;61816;53.582;10.096;2023-01-10T12:07:14;54.63;;;15.10;;
73550;SDS011;61816;53.582;10.096;2023-01-10T12:09:44;51.85;;;13.88;;
73550;SDS011;61816;53.582;10.096;2023-01-10T12:12:17;51.70;;;15.02;;
73550;SDS011;61816;53.582;10.096;2023-01-10T12:14:46;56.90;;;14.05;;
73550;SDS011;61816;53.582;10.096;2023-01-10T12:17:19;52.83;;;15.32;;
73550;SDS011;61816;53.582;10.096;2023-01-10T12:19:47;52.10;;;15.30;;
73550;SDS011;61816;53.582;10.096;2023-01-10T12:22:17;44.67;;;14.05;;
73550;SDS011;61816;53.582;10.096;2023-01-10T12:24:46;55.53;;;14.27;;
73550;SDS011;61816;53.582;10.096;2023-01-10T12:27:14;64.03;;;15.57;;
73550;SDS011;61816;53.582;10.096;2023-01-10T12:29:43;52.65;;;14.88;;
